sensor_id;sensor_type;location;lat;lon;timestamp;P1;durP1;ratioP1;P2;durP2;ratioP2
70592;SDS011;58294;42.988;20.338;2023-06-22T00:01:54;19.98;;;16.95;;
70592;SDS011;58294;42.988;20.338;2023-06-22T00:04:20;19.38;;;17.10;;
70592;SDS011;58294;42.988;20.338;2023-06-22T00:06:46;19.90;;;16.90;;
70592;SDS011;58294;42.988;20.338;2023-06-22T00:09:12;21.35;;;17.33;;
70592;SDS011;58294;42.988;20.338;2023-06-22T00:11:38;27.02;;;17.10;;
70592;SDS011;58294;42.988;20.338;2023-06-22T00:14:04;19.27;;;16.98;;
70592;SDS011;58294;42.988;20.338;2023-06-22T00:16:33;17.65;;;15.55;;
70592;SDS011;58294;42.988;20.338;2023-06-22T00:19:00;18.33;;;16.20;;
70592;SDS011;58294;42.988;20.338;2023-06-22T00:21:27;19.25;;;16.52;;
70592;SDS011;58294;42.988;20.338;2023-06-22T00:23:54;18.58;;;16.45;;
70592;SDS011;58294;42.988;20.338;2023-06-22T00:26:20;24.08;;;17.38;;
70592;SDS011;58294;42.988;20.338;2023-06-22T00:28:47;19.45;;;17.38;;
70592;SDS011;58294;42.988;20.338;2023-06-22T00:31:13;19.00;;;15.77;;
70592;SDS011;58294;42.988;20.338;2023-06-22T00:33:39;22.30;;;17.17;;
70592;SDS011;58294;42.988;20.338;2023-06-22T00:36:05;20.33;;;17.25;;
70592;SDS011;58294;42.988;20.338;2023-06-22T00:38:33;21.52;;;17.35;;
70592;SDS011;58294;42.988;20.338;2023-06-22T00:40:59;18.15;;;16.23;;
70592;SDS011;58294;42.988;20.338;2023-06-22T00:43:25;20.67;;;18.10;;
70592;SDS011;58294;42.988;20.338;2023-06-22T00:45:50;20.02;;;17.95;;
70592;SDS011;58294;42.988;20.338;2023-06-22T00:48:16;20.88;;;17.95;;
70592;SDS011;58294;42.988;20.338;2023-06-22T00:50:42;20.00;;;17.25;;
70592;SDS011;58294;42.988;20.338;2023-06-22T00:53:08;18.67;;;16.55;;
70592;SDS011;58294;42.988;20.338;2023-06-22T00:55:36;20.30;;;16.52;;
70592;SDS011;58294;42.988;20.338;2023-06-22T00:58:04;18.02;;;15.70;;
70592;SDS011;58294;42.988;20.338;2023-06-22T01:00:33;19.67;;;16.10;;
70592;SDS011;58294;42.988;20.338;2023-06-22T01:02:59;19.10;;;16.52;;
70592;SDS011;58294;42.988;20.338;2023-06-22T01:05:25;22.02;;;18.52;;
70592;SDS011;58294;42.988;20.338;2023-06-22T01:08:04;20.40;;;16.75;;
70592;SDS011;58294;42.988;20.338;2023-06-22T01:10:52;20.33;;;16.77;;
70592;SDS011;58294;42.988;20.338;2023-06-22T01:16:29;18.52;;;16.45;;
70592;SDS011;58294;42.988;20.338;2023-06-22T01:18:57;19.95;;;17.55;;
70592;SDS011;58294;42.988;20.338;2023-06-22T01:21:33;19.05;;;17.13;;
70592;SDS011;58294;42.988;20.338;2023-06-22T01:29:18;25.63;;;19.20;;
70592;SDS011;58294;42.988;20.338;2023-06-22T01:31:46;20.25;;;17.23;;
70592;SDS011;58294;42.988;20.338;2023-06-22T01:34:14;17.63;;;15.88;;
70592;SDS011;58294;42.988;20.338;2023-06-22T01:36:41;20.70;;;16.98;;
70592;SDS011;58294;42.988;20.338;2023-06-22T01:39:08;19.65;;;16.77;;
70592;SDS011;58294;42.988;20.338;2023-06-22T01:41:36;19.35;;;15.73;;
70592;SDS011;58294;42.988;20.338;2023-06-22T01:44:05;19.80;;;16.65;;
70592;SDS011;58294;42.988;20.338;2023-06-22T01:46:33;20.30;;;16.55;;
70592;SDS011;58294;42.988;20.338;2023-06-22T01:49:01;18.80;;;16.05;;
70592;SDS011;58294;42.988;20.338;2023-06-22T01:51:28;19.90;;;17.13;;
70592;SDS011;58294;42.988;20.338;2023-06-22T01:53:54;17.92;;;15.88;;
70592;SDS011;58294;42.988;20.338;2023-06-22T01:56:20;18.73;;;15.95;;
70592;SDS011;58294;42.988;20.338;2023-06-22T01:58:48;20.00;;;16.88;;
70592;SDS011;58294;42.988;20.338;2023-06-22T02:01:28;17.67;;;15.60;;
70592;SDS011;58294;42.988;20.338;2023-06-22T02:04:06;19.15;;;15.93;;
70592;SDS011;58294;42.988;20.338;2023-06-22T02:06:37;18.70;;;16.65;;
70592;SDS011;58294;42.988;20.338;2023-06-22T02:09:08;17.98;;;15.48;;
70592;SDS011;58294;42.988;20.338;2023-06-22T02:11:37;17.60;;;15.65;;
70592;SDS011;58294;42.988;20.338;2023-06-22T02:14:06;19.75;;;15.75;;
70592;SDS011;58294;42.988;20.338;2023-06-22T02:16:33;20.08;;;15.70;;
70592;SDS011;58294;42.988;20.338;2023-06-22T02:19:00;19.48;;;15.80;;
70592;SDS011;58294;42.988;20.338;2023-06-22T02:21:31;17.90;;;16.02;;
70592;SDS011;58294;42.988;20.338;2023-06-22T02:23:57;18.50;;;16.67;;
70592;SDS011;58294;42.988;20.338;2023-06-22T02:26:23;19.88;;;16.75;;
70592;SDS011;58294;42.988;20.338;2023-06-22T02:28:51;20.05;;;16.52;;
70592;SDS011;58294;42.988;20.338;2023-06-22T02:31:17;17.50;;;15.60;;
70592;SDS011;58294;42.988;20.338;2023-06-22T02:33:44;18.30;;;16.50;;
70592;SDS011;58294;42.988;20.338;2023-06-22T02:36:10;19.05;;;16.05;;
70592;SDS011;58294;42.988;20.338;2023-06-22T02:38:38;21.17;;;16.95;;
70592;SDS011;58294;42.988;20.338;2023-06-22T02:41:04;18.15;;;16.45;;
70592;SDS011;58294;42.988;20.338;2023-06-22T02:43:31;16.40;;;14.70;;
70592;SDS011;58294;42.988;20.338;2023-06-22T02:45:57;18.25;;;16.35;;
70592;SDS011;58294;42.988;20.338;2023-06-22T02:48:23;19.15;;;17.17;;
70592;SDS011;58294;42.988;20.338;2023-06-22T02:50:50;19.27;;;17.20;;
70592;SDS011;58294;42.988;20.338;2023-06-22T02:53:16;17.20;;;15.50;;
70592;SDS011;58294;42.988;20.338;2023-06-22T02:55:42;20.40;;;15.88;;
70592;SDS011;58294;42.988;20.338;2023-06-22T02:58:08;16.73;;;15.00;;
70592;SDS011;58294;42.988;20.338;2023-06-22T03:00:34;17.25;;;15.43;;
70592;SDS011;58294;42.988;20.338;2023-06-22T03:03:00;18.95;;;16.85;;
70592;SDS011;58294;42.988;20.338;2023-06-22T03:05:26;20.02;;;16.73;;
70592;SDS011;58294;42.988;20.338;2023-06-22T03:07:52;21.88;;;15.60;;
70592;SDS011;58294;42.988;20.338;2023-06-22T03:10:19;20.35;;;16.60;;
70592;SDS011;58294;42.988;20.338;2023-06-22T03:12:46;17.60;;;15.80;;
70592;SDS011;58294;42.988;20.338;2023-06-22T03:15:12;16.08;;;14.50;;
70592;SDS011;58294;42.988;20.338;2023-06-22T03:17:39;16.90;;;15.20;;
70592;SDS011;58294;42.988;20.338;2023-06-22T03:20:06;17.38;;;15.38;;
70592;SDS011;58294;42.988;20.338;2023-06-22T03:22:37;17.38;;;15.52;;
70592;SDS011;58294;42.988;20.338;2023-06-22T03:25:03;17.38;;;15.32;;
70592;SDS011;58294;42.988;20.338;2023-06-22T03:27:35;18.13;;;15.13;;
70592;SDS011;58294;42.988;20.338;2023-06-22T03:30:01;16.83;;;15.23;;
70592;SDS011;58294;42.988;20.338;2023-06-22T03:32:27;20.00;;;15.95;;
70592;SDS011;58294;42.988;20.338;2023-06-22T03:34:53;17.08;;;14.93;;
70592;SDS011;58294;42.988;20.338;2023-06-22T03:37:24;18.33;;;15.20;;
70592;SDS011;58294;42.988;20.338;2023-06-22T03:39:50;18.40;;;16.25;;
70592;SDS011;58294;42.988;20.338;2023-06-22T03:42:17;17.05;;;15.07;;
70592;SDS011;58294;42.988;20.338;2023-06-22T03:44:43;16.63;;;14.75;;
70592;SDS011;58294;42.988;20.338;2023-06-22T03:47:09;20.05;;;17.00;;
70592;SDS011;58294;42.988;20.338;2023-06-22T03:49:35;21.63;;;16.08;;
70592;SDS011;58294;42.988;20.338;2023-06-22T03:52:02;24.02;;;16.92;;
70592;SDS011;58294;42.988;20.338;2023-06-22T03:54:28;17.58;;;15.38;;
70592;SDS011;58294;42.988;20.338;2023-06-22T03:56:56;20.65;;;16.38;;
70592;SDS011;58294;42.988;20.338;2023-06-22T03:59:22;17.15;;;15.05;;
70592;SDS011;58294;42.988;20.338;2023-06-22T04:01:48;20.38;;;17.25;;
70592;SDS011;58294;42.988;20.338;2023-06-22T04:04:15;20.38;;;16.13;;
70592;SDS011;58294;42.988;20.338;2023-06-22T04:06:42;18.55;;;16.77;;
70592;SDS011;58294;42.988;20.338;2023-06-22T04:09:08;22.40;;;17.17;;
70592;SDS011;58294;42.988;20.338;2023-06-22T04:11:34;20.90;;;16.73;;
70592;SDS011;58294;42.988;20.338;2023-06-22T04:14:00;18.30;;;16.42;;
70592;SDS011;58294;42.988;20.338;2023-06-22T04:16:26;18.13;;;16.38;;
70592;SDS011;58294;42.988;20.338;2023-06-22T04:18:51;21.50;;;16.75;;
70592;SDS011;58294;42.988;20.338;2023-06-22T04:21:17;26.95;;;17.70;;
70592;SDS011;58294;42.988;20.338;2023-06-22T04:23:45;21.20;;;16.95;;
70592;SDS011;58294;42.988;20.338;2023-06-22T04:26:11;34.55;;;17.95;;
70592;SDS011;58294;42.988;20.338;2023-06-22T04:28:39;23.58;;;17.42;;
70592;SDS011;58294;42.988;20.338;2023-06-22T04:31:05;24.75;;;16.48;;
70592;SDS011;58294;42.988;20.338;2023-06-22T04:33:31;19.80;;;17.70;;
70592;SDS011;58294;42.988;20.338;2023-06-22T04:35:57;23.15;;;17.63;;
70592;SDS011;58294;42.988;20.338;2023-06-22T04:38:23;19.77;;;17.40;;
70592;SDS011;58294;42.988;20.338;2023-06-22T04:40:50;24.75;;;19.70;;
70592;SDS011;58294;42.988;20.338;2023-06-22T04:43:16;20.67;;;18.48;;
70592;SDS011;58294;42.988;20.338;2023-06-22T04:45:42;19.73;;;17.55;;
70592;SDS011;58294;42.988;20.338;2023-06-22T04:48:07;20.92;;;18.73;;
70592;SDS011;58294;42.988;20.338;2023-06-22T04:50:35;23.77;;;20.17;;
70592;SDS011;58294;42.988;20.338;2023-06-22T04:53:04;27.83;;;20.60;;
70592;SDS011;58294;42.988;20.338;2023-06-22T04:55:31;21.40;;;17.33;;
70592;SDS011;58294;42.988;20.338;2023-06-22T04:57:57;22.17;;;18.42;;
70592;SDS011;58294;42.988;20.338;2023-06-22T05:00:29;24.90;;;17.65;;
70592;SDS011;58294;42.988;20.338;2023-06-22T05:02:56;19.92;;;17.80;;
70592;SDS011;58294;42.988;20.338;2023-06-22T05:05:23;21.73;;;17.90;;
70592;SDS011;58294;42.988;20.338;2023-06-22T05:07:50;29.02;;;21.30;;
70592;SDS011;58294;42.988;20.338;2023-06-22T05:10:18;19.48;;;17.40;;
70592;SDS011;58294;42.988;20.338;2023-06-22T05:12:45;19.52;;;17.45;;
70592;SDS011;58294;42.988;20.338;2023-06-22T05:15:12;25.02;;;17.17;;
70592;SDS011;58294;42.988;20.338;2023-06-22T05:17:38;20.08;;;17.98;;
70592;SDS011;58294;42.988;20.338;2023-06-22T05:20:10;20.02;;;17.98;;
70592;SDS011;58294;42.988;20.338;2023-06-22T05:22:37;21.33;;;17.63;;
70592;SDS011;58294;42.988;20.338;2023-06-22T05:25:08;23.85;;;18.67;;
70592;SDS011;58294;42.988;20.338;2023-06-22T05:27:35;26.73;;;23.95;;
70592;SDS011;58294;42.988;20.338;2023-06-22T05:30:07;20.95;;;18.85;;
70592;SDS011;58294;42.988;20.338;2023-06-22T05:32:34;20.10;;;17.23;;
70592;SDS011;58294;42.988;20.338;2023-06-22T05:35:00;22.02;;;16.98;;
70592;SDS011;58294;42.988;20.338;2023-06-22T05:37:26;20.50;;;17.73;;
70592;SDS011;58294;42.988;20.338;2023-06-22T05:39:52;34.58;;;19.67;;
70592;SDS011;58294;42.988;20.338;2023-06-22T05:42:20;37.30;;;21.73;;
70592;SDS011;58294;42.988;20.338;2023-06-22T05:44:46;23.60;;;17.98;;
70592;SDS011;58294;42.988;20.338;2023-06-22T05:47:12;20.67;;;17.63;;
70592;SDS011;58294;42.988;20.338;2023-06-22T05:49:38;19.50;;;17.55;;
70592;SDS011;58294;42.988;20.338;2023-06-22T05:52:04;23.90;;;18.58;;
70592;SDS011;58294;42.988;20.338;2023-06-22T05:54:30;22.27;;;19.88;;
70592;SDS011;58294;42.988;20.338;2023-06-22T05:56:56;21.27;;;18.92;;
70592;SDS011;58294;42.988;20.338;2023-06-22T05:59:22;26.70;;;20.80;;
70592;SDS011;58294;42.988;20.338;2023-06-22T06:01:49;26.33;;;20.48;;
70592;SDS011;58294;42.988;20.338;2023-06-22T06:04:18;28.83;;;22.55;;
70592;SDS011;58294;42.988;20.338;2023-06-22T06:06:44;24.10;;;19.92;;
70592;SDS011;58294;42.988;20.338;2023-06-22T06:09:12;23.75;;;21.05;;
70592;SDS011;58294;42.988;20.338;2023-06-22T06:11:41;23.92;;;20.45;;
70592;SDS011;58294;42.988;20.338;2023-06-22T06:14:07;34.58;;;21.48;;
70592;SDS011;58294;42.988;20.338;2023-06-22T06:16:33;26.75;;;21.92;;
70592;SDS011;58294;42.988;20.338;2023-06-22T06:18:59;22.67;;;19.35;;
70592;SDS011;58294;42.988;20.338;2023-06-22T06:21:25;23.48;;;21.00;;
70592;SDS011;58294;42.988;20.338;2023-06-22T06:23:51;23.58;;;20.65;;
70592;SDS011;58294;42.988;20.338;2023-06-22T06:26:18;39.10;;;22.73;;
70592;SDS011;58294;42.988;20.338;2023-06-22T06:28:53;23.35;;;21.08;;
70592;SDS011;58294;42.988;20.338;2023-06-22T06:31:21;23.67;;;19.70;;
70592;SDS011;58294;42.988;20.338;2023-06-22T06:33:50;27.02;;;20.08;;
70592;SDS011;58294;42.988;20.338;2023-06-22T06:36:16;25.88;;;20.85;;
70592;SDS011;58294;42.988;20.338;2023-06-22T06:38:42;26.10;;;19.63;;
70592;SDS011;58294;42.988;20.338;2023-06-22T06:41:07;26.27;;;19.80;;
70592;SDS011;58294;42.988;20.338;2023-06-22T06:43:34;25.48;;;21.05;;
70592;SDS011;58294;42.988;20.338;2023-06-22T06:45:59;24.38;;;20.55;;
70592;SDS011;58294;42.988;20.338;2023-06-22T06:48:25;22.35;;;20.13;;
70592;SDS011;58294;42.988;20.338;2023-06-22T06:50:51;23.75;;;20.45;;
70592;SDS011;58294;42.988;20.338;2023-06-22T06:53:17;22.58;;;19.50;;
70592;SDS011;58294;42.988;20.338;2023-06-22T06:55:43;31.05;;;20.33;;
70592;SDS011;58294;42.988;20.338;2023-06-22T06:58:10;22.25;;;19.95;;
70592;SDS011;58294;42.988;20.338;2023-06-22T07:00:38;24.80;;;19.95;;
70592;SDS011;58294;42.988;20.338;2023-06-22T07:03:04;28.23;;;20.02;;
70592;SDS011;58294;42.988;20.338;2023-06-22T07:05:32;24.75;;;20.60;;
70592;SDS011;58294;42.988;20.338;2023-06-22T07:07:58;31.48;;;20.38;;
70592;SDS011;58294;42.988;20.338;2023-06-22T07:10:24;22.73;;;20.38;;
70592;SDS011;58294;42.988;20.338;2023-06-22T07:12:50;25.52;;;20.67;;
70592;SDS011;58294;42.988;20.338;2023-06-22T07:15:17;23.30;;;20.02;;
70592;SDS011;58294;42.988;20.338;2023-06-22T07:17:43;21.45;;;19.05;;
70592;SDS011;58294;42.988;20.338;2023-06-22T07:20:09;26.27;;;20.10;;
70592;SDS011;58294;42.988;20.338;2023-06-22T07:22:37;30.48;;;20.30;;
70592;SDS011;58294;42.988;20.338;2023-06-22T07:25:04;24.95;;;20.17;;
70592;SDS011;58294;42.988;20.338;2023-06-22T07:27:37;22.73;;;20.40;;
70592;SDS011;58294;42.988;20.338;2023-06-22T07:30:08;22.08;;;18.95;;
70592;SDS011;58294;42.988;20.338;2023-06-22T07:32:35;23.20;;;20.42;;
70592;SDS011;58294;42.988;20.338;2023-06-22T07:35:01;28.02;;;21.17;;
70592;SDS011;58294;42.988;20.338;2023-06-22T07:37:27;24.35;;;19.60;;
70592;SDS011;58294;42.988;20.338;2023-06-22T07:39:54;23.52;;;20.77;;
70592;SDS011;58294;42.988;20.338;2023-06-22T07:42:27;22.10;;;19.90;;
70592;SDS011;58294;42.988;20.338;2023-06-22T07:44:57;24.02;;;20.52;;
70592;SDS011;58294;42.988;20.338;2023-06-22T07:47:23;27.35;;;20.67;;
70592;SDS011;58294;42.988;20.338;2023-06-22T07:49:53;26.63;;;20.55;;
70592;SDS011;58294;42.988;20.338;2023-06-22T07:52:23;22.85;;;20.42;;
70592;SDS011;58294;42.988;20.338;2023-06-22T07:54:50;23.40;;;20.95;;
70592;SDS011;58294;42.988;20.338;2023-06-22T07:57:16;23.00;;;19.85;;
70592;SDS011;58294;42.988;20.338;2023-06-22T07:59:41;23.75;;;20.88;;
70592;SDS011;58294;42.988;20.338;2023-06-22T08:02:07;23.17;;;20.55;;
70592;SDS011;58294;42.988;20.338;2023-06-22T08:04:34;22.40;;;19.98;;
70592;SDS011;58294;42.988;20.338;2023-06-22T08:07:01;22.35;;;19.90;;
70592;SDS011;58294;42.988;20.338;2023-06-22T08:09:30;22.05;;;19.75;;
70592;SDS011;58294;42.988;20.338;2023-06-22T08:11:57;23.75;;;20.88;;
70592;SDS011;58294;42.988;20.338;2023-06-22T08:14:26;22.50;;;20.20;;
70592;SDS011;58294;42.988;20.338;2023-06-22T08:16:52;20.98;;;18.80;;
70592;SDS011;58294;42.988;20.338;2023-06-22T08:19:18;20.20;;;18.30;;
70592;SDS011;58294;42.988;20.338;2023-06-22T08:21:45;20.25;;;18.27;;
70592;SDS011;58294;42.988;20.338;2023-06-22T08:24:11;21.58;;;19.45;;
70592;SDS011;58294;42.988;20.338;2023-06-22T08:26:38;23.52;;;19.67;;
70592;SDS011;58294;42.988;20.338;2023-06-22T08:29:04;21.90;;;18.60;;
70592;SDS011;58294;42.988;20.338;2023-06-22T08:31:30;21.20;;;18.88;;
70592;SDS011;58294;42.988;20.338;2023-06-22T08:33:58;22.38;;;19.13;;
70592;SDS011;58294;42.988;20.338;2023-06-22T08:36:24;22.05;;;19.67;;
70592;SDS011;58294;42.988;20.338;2023-06-22T08:38:54;20.50;;;18.60;;
70592;SDS011;58294;42.988;20.338;2023-06-22T08:41:26;20.80;;;18.77;;
70592;SDS011;58294;42.988;20.338;2023-06-22T08:43:52;20.75;;;18.83;;
70592;SDS011;58294;42.988;20.338;2023-06-22T08:46:19;20.58;;;18.50;;
70592;SDS011;58294;42.988;20.338;2023-06-22T08:48:48;20.73;;;18.50;;
70592;SDS011;58294;42.988;20.338;2023-06-22T08:51:15;20.92;;;18.67;;
70592;SDS011;58294;42.988;20.338;2023-06-22T08:53:42;21.67;;;18.80;;
70592;SDS011;58294;42.988;20.338;2023-06-22T08:56:08;21.40;;;19.27;;
70592;SDS011;58294;42.988;20.338;2023-06-22T08:58:34;19.83;;;17.40;;
70592;SDS011;58294;42.988;20.338;2023-06-22T09:00:59;18.13;;;16.42;;
70592;SDS011;58294;42.988;20.338;2023-06-22T09:03:26;21.65;;;18.13;;
70592;SDS011;58294;42.988;20.338;2023-06-22T09:05:52;18.77;;;16.98;;
70592;SDS011;58294;42.988;20.338;2023-06-22T09:08:18;23.83;;;18.83;;
70592;SDS011;58294;42.988;20.338;2023-06-22T09:10:44;16.67;;;15.18;;
70592;SDS011;58294;42.988;20.338;2023-06-22T09:13:09;16.95;;;15.45;;
70592;SDS011;58294;42.988;20.338;2023-06-22T09:15:35;19.85;;;17.15;;
70592;SDS011;58294;42.988;20.338;2023-06-22T09:18:01;18.15;;;16.20;;
70592;SDS011;58294;42.988;20.338;2023-06-22T09:20:27;18.38;;;16.02;;
70592;SDS011;58294;42.988;20.338;2023-06-22T09:22:53;15.10;;;13.55;;
70592;SDS011;58294;42.988;20.338;2023-06-22T09:25:19;16.20;;;14.73;;
70592;SDS011;58294;42.988;20.338;2023-06-22T09:27:46;15.45;;;13.95;;
70592;SDS011;58294;42.988;20.338;2023-06-22T09:30:13;16.02;;;14.52;;
70592;SDS011;58294;42.988;20.338;2023-06-22T09:32:38;14.75;;;13.18;;
70592;SDS011;58294;42.988;20.338;2023-06-22T09:35:04;14.48;;;12.98;;
70592;SDS011;58294;42.988;20.338;2023-06-22T09:37:31;15.73;;;10.43;;
70592;SDS011;58294;42.988;20.338;2023-06-22T09:39:57;11.95;;;10.82;;
70592;SDS011;58294;42.988;20.338;2023-06-22T09:42:23;12.75;;;11.52;;
70592;SDS011;58294;42.988;20.338;2023-06-22T09:44:49;14.13;;;12.77;;
70592;SDS011;58294;42.988;20.338;2023-06-22T09:47:15;12.02;;;10.90;;
70592;SDS011;58294;42.988;20.338;2023-06-22T09:49:41;9.95;;;8.95;;
70592;SDS011;58294;42.988;20.338;2023-06-22T09:52:07;12.57;;;11.45;;
70592;SDS011;58294;42.988;20.338;2023-06-22T09:54:33;11.70;;;10.50;;
70592;SDS011;58294;42.988;20.338;2023-06-22T09:56:58;9.93;;;8.98;;
70592;SDS011;58294;42.988;20.338;2023-06-22T09:59:24;11.35;;;9.63;;
70592;SDS011;58294;42.988;20.338;2023-06-22T10:01:50;10.48;;;9.18;;
70592;SDS011;58294;42.988;20.338;2023-06-22T10:04:16;10.60;;;9.50;;
70592;SDS011;58294;42.988;20.338;2023-06-22T10:06:42;13.70;;;11.02;;
70592;SDS011;58294;42.988;20.338;2023-06-22T10:09:08;12.90;;;10.88;;
70592;SDS011;58294;42.988;20.338;2023-06-22T10:11:34;12.93;;;9.70;;
70592;SDS011;58294;42.988;20.338;2023-06-22T10:14:01;11.75;;;10.57;;
70592;SDS011;58294;42.988;20.338;2023-06-22T10:16:32;12.68;;;11.48;;
70592;SDS011;58294;42.988;20.338;2023-06-22T10:18:58;13.13;;;11.77;;
70592;SDS011;58294;42.988;20.338;2023-06-22T10:21:24;14.30;;;12.48;;
70592;SDS011;58294;42.988;20.338;2023-06-22T10:23:52;14.27;;;12.82;;
70592;SDS011;58294;42.988;20.338;2023-06-22T10:26:18;18.42;;;13.63;;
70592;SDS011;58294;42.988;20.338;2023-06-22T10:28:44;15.80;;;14.15;;
70592;SDS011;58294;42.988;20.338;2023-06-22T10:31:10;20.48;;;15.55;;
70592;SDS011;58294;42.988;20.338;2023-06-22T10:33:36;14.00;;;12.57;;
70592;SDS011;58294;42.988;20.338;2023-06-22T10:36:01;18.13;;;15.30;;
70592;SDS011;58294;42.988;20.338;2023-06-22T10:38:27;17.17;;;14.93;;
70592;SDS011;58294;42.988;20.338;2023-06-22T10:40:53;14.88;;;13.07;;
70592;SDS011;58294;42.988;20.338;2023-06-22T10:43:19;18.52;;;14.85;;
70592;SDS011;58294;42.988;20.338;2023-06-22T10:45:45;15.38;;;13.80;;
70592;SDS011;58294;42.988;20.338;2023-06-22T10:48:11;17.30;;;15.02;;
70592;SDS011;58294;42.988;20.338;2023-06-22T10:50:36;16.88;;;14.85;;
70592;SDS011;58294;42.988;20.338;2023-06-22T10:53:03;21.95;;;15.30;;
70592;SDS011;58294;42.988;20.338;2023-06-22T10:55:29;16.05;;;14.25;;
70592;SDS011;58294;42.988;20.338;2023-06-22T10:57:54;14.70;;;13.32;;
70592;SDS011;58294;42.988;20.338;2023-06-22T11:00:20;14.80;;;13.10;;
70592;SDS011;58294;42.988;20.338;2023-06-22T11:02:46;20.13;;;14.18;;
70592;SDS011;58294;42.988;20.338;2023-06-22T11:05:12;13.20;;;11.82;;
70592;SDS011;58294;42.988;20.338;2023-06-22T11:07:42;15.80;;;12.13;;
70592;SDS011;58294;42.988;20.338;2023-06-22T11:10:09;13.23;;;11.90;;
70592;SDS011;58294;42.988;20.338;2023-06-22T11:12:35;15.10;;;12.55;;
70592;SDS011;58294;42.988;20.338;2023-06-22T11:15:01;14.70;;;12.82;;
70592;SDS011;58294;42.988;20.338;2023-06-22T11:17:27;13.30;;;12.00;;
70592;SDS011;58294;42.988;20.338;2023-06-22T11:19:53;13.15;;;12.00;;
70592;SDS011;58294;42.988;20.338;2023-06-22T11:22:19;12.90;;;11.68;;
70592;SDS011;58294;42.988;20.338;2023-06-22T11:24:45;13.02;;;11.77;;
70592;SDS011;58294;42.988;20.338;2023-06-22T11:27:10;12.05;;;10.82;;
70592;SDS011;58294;42.988;20.338;2023-06-22T11:29:36;14.00;;;11.00;;
70592;SDS011;58294;42.988;20.338;2023-06-22T11:32:05;14.02;;;12.00;;
70592;SDS011;58294;42.988;20.338;2023-06-22T11:34:31;12.13;;;10.85;;
70592;SDS011;58294;42.988;20.338;2023-06-22T11:36:57;12.48;;;11.27;;
70592;SDS011;58294;42.988;20.338;2023-06-22T11:39:24;16.25;;;12.02;;
70592;SDS011;58294;42.988;20.338;2023-06-22T11:41:49;15.35;;;11.10;;
70592;SDS011;58294;42.988;20.338;2023-06-22T11:44:15;16.80;;;12.30;;
70592;SDS011;58294;42.988;20.338;2023-06-22T11:46:41;13.02;;;11.75;;
70592;SDS011;58294;42.988;20.338;2023-06-22T11:49:07;18.27;;;12.80;;
70592;SDS011;58294;42.988;20.338;2023-06-22T11:51:34;13.40;;;10.05;;
70592;SDS011;58294;42.988;20.338;2023-06-22T11:53:59;11.07;;;10.18;;
70592;SDS011;58294;42.988;20.338;2023-06-22T11:56:25;13.10;;;10.73;;
70592;SDS011;58294;42.988;20.338;2023-06-22T11:58:53;12.57;;;11.30;;
70592;SDS011;58294;42.988;20.338;2023-06-22T12:01:19;12.07;;;11.07;;
70592;SDS011;58294;42.988;20.338;2023-06-22T12:03:45;11.65;;;10.68;;
70592;SDS011;58294;42.988;20.338;2023-06-22T12:06:11;13.10;;;11.88;;
70592;SDS011;58294;42.988;20.338;2023-06-22T12:08:37;12.50;;;11.10;;
70592;SDS011;58294;42.988;20.338;2023-06-22T12:11:03;12.88;;;11.57;;
70592;SDS011;58294;42.988;20.338;2023-06-22T12:13:28;17.02;;;12.90;;
70592;SDS011;58294;42.988;20.338;2023-06-22T12:15:54;15.88;;;11.10;;
70592;SDS011;58294;42.988;20.338;2023-06-22T12:18:20;14.05;;;11.32;;
70592;SDS011;58294;42.988;20.338;2023-06-22T12:20:46;11.13;;;9.93;;
70592;SDS011;58294;42.988;20.338;2023-06-22T12:23:12;12.15;;;10.77;;
70592;SDS011;58294;42.988;20.338;2023-06-22T12:25:39;11.70;;;10.65;;
70592;SDS011;58294;42.988;20.338;2023-06-22T12:28:05;11.73;;;10.18;;
70592;SDS011;58294;42.988;20.338;2023-06-22T12:30:32;11.65;;;10.43;;
70592;SDS011;58294;42.988;20.338;2023-06-22T12:32:58;11.65;;;10.23;;
70592;SDS011;58294;42.988;20.338;2023-06-22T12:35:24;12.65;;;11.10;;
70592;SDS011;58294;42.988;20.338;2023-06-22T12:37:50;18.15;;;11.05;;
70592;SDS011;58294;42.988;20.338;2023-06-22T12:40:16;12.43;;;10.32;;
70592;SDS011;58294;42.988;20.338;2023-06-22T12:42:41;12.88;;;11.00;;
70592;SDS011;58294;42.988;20.338;2023-06-22T12:45:07;12.32;;;9.43;;
70592;SDS011;58294;42.988;20.338;2023-06-22T12:47:34;14.95;;;9.88;;
70592;SDS011;58294;42.988;20.338;2023-06-22T12:50:00;9.73;;;8.77;;
70592;SDS011;58294;42.988;20.338;2023-06-22T12:52:26;11.90;;;9.65;;
70592;SDS011;58294;42.988;20.338;2023-06-22T12:54:51;10.07;;;9.15;;
70592;SDS011;58294;42.988;20.338;2023-06-22T12:57:17;10.15;;;9.07;;
70592;SDS011;58294;42.988;20.338;2023-06-22T12:59:45;15.70;;;9.90;;
70592;SDS011;58294;42.988;20.338;2023-06-22T13:02:10;30.38;;;13.10;;
70592;SDS011;58294;42.988;20.338;2023-06-22T13:04:36;15.63;;;9.15;;
70592;SDS011;58294;42.988;20.338;2023-06-22T13:07:02;9.63;;;8.40;;
70592;SDS011;58294;42.988;20.338;2023-06-22T13:09:28;11.65;;;9.20;;
70592;SDS011;58294;42.988;20.338;2023-06-22T13:11:54;9.68;;;8.80;;
70592;SDS011;58294;42.988;20.338;2023-06-22T13:14:20;10.27;;;9.18;;
70592;SDS011;58294;42.988;20.338;2023-06-22T13:16:46;9.77;;;8.82;;
70592;SDS011;58294;42.988;20.338;2023-06-22T13:19:12;12.90;;;11.02;;
70592;SDS011;58294;42.988;20.338;2023-06-22T13:21:38;10.48;;;9.35;;
70592;SDS011;58294;42.988;20.338;2023-06-22T13:24:04;12.57;;;9.75;;
70592;SDS011;58294;42.988;20.338;2023-06-22T13:26:31;10.75;;;9.75;;
70592;SDS011;58294;42.988;20.338;2023-06-22T13:28:57;10.23;;;8.85;;
70592;SDS011;58294;42.988;20.338;2023-06-22T13:31:23;10.73;;;8.88;;
70592;SDS011;58294;42.988;20.338;2023-06-22T13:33:49;14.40;;;10.38;;
70592;SDS011;58294;42.988;20.338;2023-06-22T13:36:17;9.88;;;8.98;;
70592;SDS011;58294;42.988;20.338;2023-06-22T13:38:43;11.82;;;9.35;;
70592;SDS011;58294;42.988;20.338;2023-06-22T13:41:09;12.73;;;9.48;;
70592;SDS011;58294;42.988;20.338;2023-06-22T13:43:35;10.30;;;9.20;;
70592;SDS011;58294;42.988;20.338;2023-06-22T13:46:00;11.45;;;9.73;;
70592;SDS011;58294;42.988;20.338;2023-06-22T13:48:26;10.88;;;9.18;;
70592;SDS011;58294;42.988;20.338;2023-06-22T13:50:53;13.00;;;9.73;;
70592;SDS011;58294;42.988;20.338;2023-06-22T13:53:19;10.43;;;9.00;;
70592;SDS011;58294;42.988;20.338;2023-06-22T13:55:45;9.80;;;8.90;;
70592;SDS011;58294;42.988;20.338;2023-06-22T13:58:12;13.90;;;9.60;;
70592;SDS011;58294;42.988;20.338;2023-06-22T14:00:38;12.90;;;9.68;;
70592;SDS011;58294;42.988;20.338;2023-06-22T14:03:04;10.93;;;9.23;;
70592;SDS011;58294;42.988;20.338;2023-06-22T14:05:30;9.73;;;8.73;;
70592;SDS011;58294;42.988;20.338;2023-06-22T14:07:56;11.05;;;9.48;;
70592;SDS011;58294;42.988;20.338;2023-06-22T14:10:22;9.43;;;8.43;;
70592;SDS011;58294;42.988;20.338;2023-06-22T14:12:48;12.88;;;9.60;;
70592;SDS011;58294;42.988;20.338;2023-06-22T14:15:14;10.95;;;9.82;;
70592;SDS011;58294;42.988;20.338;2023-06-22T14:17:39;12.43;;;9.88;;